sensor_id;sensor_type;location;lat;lon;timestamp;P1;durP1;ratioP1;P2;durP2;ratioP2
30850;SDS011;17567;48.382;9.102;2023-02-28T00:02:57;5.20;;;3.80;;
30850;SDS011;17567;48.382;9.102;2023-02-28T00:07:58;5.73;;;4.90;;
30850;SDS011;17567;48.382;9.102;2023-02-28T00:13:00;8.40;;;3.93;;
30850;SDS011;17567;48.382;9.102;2023-02-28T00:18:04;5.27;;;4.20;;
30850;SDS011;17567;48.382;9.102;2023-02-28T00:23:05;10.27;;;4.80;;
30850;SDS011;17567;48.382;9.102;2023-02-28T00:28:05;7.90;;;5.33;;
30850;SDS011;17567;48.382;9.102;2023-02-28T00:33:06;6.17;;;4.93;;
30850;SDS011;17567;48.382;9.102;2023-02-28T00:38:06;7.80;;;4.63;;
30850;SDS011;17567;48.382;9.102;2023-02-28T00:43:07;38.93;;;11.87;;
30850;SDS011;17567;48.382;9.102;2023-02-28T00:48:08;68.70;;;17.40;;
30850;SDS011;17567;48.382;9.102;2023-02-28T00:53:08;59.63;;;18.33;;
30850;SDS011;17567;48.382;9.102;2023-02-28T00:58:09;44.20;;;14.60;;
30850;SDS011;17567;48.382;9.102;2023-02-28T01:03:10;8.10;;;4.80;;
30850;SDS011;17567;48.382;9.102;2023-02-28T01:08:10;8.87;;;4.63;;
30850;SDS011;17567;48.382;9.102;2023-02-28T01:13:12;4.97;;;3.40;;
30850;SDS011;17567;48.382;9.102;2023-02-28T01:18:13;5.33;;;4.20;;
30850;SDS011;17567;48.382;9.102;2023-02-28T01:23:14;6.97;;;4.27;;
30850;SDS011;17567;48.382;9.102;2023-02-28T01:28:14;4.53;;;4.13;;
30850;SDS011;17567;48.382;9.102;2023-02-28T01:33:15;6.23;;;4.60;;
30850;SDS011;17567;48.382;9.102;2023-02-28T01:38:16;8.27;;;4.53;;
30850;SDS011;17567;48.382;9.102;2023-02-28T01:48:29;6.00;;;4.20;;
30850;SDS011;17567;48.382;9.102;2023-02-28T01:53:34;4.80;;;4.30;;
30850;SDS011;17567;48.382;9.102;2023-02-28T01:58:38;6.83;;;5.00;;
30850;SDS011;17567;48.382;9.102;2023-02-28T02:03:39;5.37;;;4.17;;
30850;SDS011;17567;48.382;9.102;2023-02-28T02:08:40;7.93;;;4.73;;
30850;SDS011;17567;48.382;9.102;2023-02-28T02:40:37;5.13;;;4.17;;
30850;SDS011;17567;48.382;9.102;2023-02-28T02:45:43;5.90;;;4.43;;
30850;SDS011;17567;48.382;9.102;2023-02-28T02:50:51;6.80;;;4.30;;
30850;SDS011;17567;48.382;9.102;2023-02-28T02:55:55;6.97;;;4.77;;
30850;SDS011;17567;48.382;9.102;2023-02-28T03:00:58;5.67;;;4.20;;
30850;SDS011;17567;48.382;9.102;2023-02-28T03:06:02;5.57;;;4.60;;
30850;SDS011;17567;48.382;9.102;2023-02-28T03:11:07;5.07;;;4.57;;
30850;SDS011;17567;48.382;9.102;2023-02-28T03:26:57;5.87;;;5.27;;
30850;SDS011;17567;48.382;9.102;2023-02-28T03:32:05;6.40;;;5.20;;
30850;SDS011;17567;48.382;9.102;2023-02-28T03:37:18;7.83;;;5.50;;
30850;SDS011;17567;48.382;9.102;2023-02-28T03:42:23;7.80;;;5.10;;
30850;SDS011;17567;48.382;9.102;2023-02-28T03:47:29;6.50;;;5.63;;
30850;SDS011;17567;48.382;9.102;2023-02-28T03:52:42;6.87;;;5.30;;
30850;SDS011;17567;48.382;9.102;2023-02-28T04:03:04;6.47;;;5.03;;
30850;SDS011;17567;48.382;9.102;2023-02-28T04:08:06;5.90;;;4.90;;
30850;SDS011;17567;48.382;9.102;2023-02-28T04:13:08;6.57;;;5.60;;
30850;SDS011;17567;48.382;9.102;2023-02-28T04:18:08;9.43;;;5.80;;
30850;SDS011;17567;48.382;9.102;2023-02-28T04:23:09;5.27;;;4.77;;
30850;SDS011;17567;48.382;9.102;2023-02-28T04:28:09;8.23;;;5.57;;
30850;SDS011;17567;48.382;9.102;2023-02-28T04:33:10;6.70;;;5.30;;
30850;SDS011;17567;48.382;9.102;2023-02-28T04:38:11;6.63;;;5.40;;
30850;SDS011;17567;48.382;9.102;2023-02-28T04:43:12;8.50;;;5.63;;
30850;SDS011;17567;48.382;9.102;2023-02-28T04:48:12;6.60;;;5.03;;
30850;SDS011;17567;48.382;9.102;2023-02-28T04:53:13;5.93;;;4.70;;
30850;SDS011;17567;48.382;9.102;2023-02-28T04:58:13;10.47;;;5.23;;
30850;SDS011;17567;48.382;9.102;2023-02-28T05:03:14;5.33;;;4.80;;
30850;SDS011;17567;48.382;9.102;2023-02-28T05:08:15;7.73;;;5.47;;
30850;SDS011;17567;48.382;9.102;2023-02-28T05:13:15;8.17;;;5.17;;
30850;SDS011;17567;48.382;9.102;2023-02-28T05:18:16;6.53;;;5.13;;
30850;SDS011;17567;48.382;9.102;2023-02-28T05:23:16;7.70;;;5.17;;
30850;SDS011;17567;48.382;9.102;2023-02-28T05:28:19;8.07;;;5.50;;
30850;SDS011;17567;48.382;9.102;2023-02-28T05:33:20;6.80;;;5.33;;
30850;SDS011;17567;48.382;9.102;2023-02-28T05:38:21;9.93;;;5.63;;
30850;SDS011;17567;48.382;9.102;2023-02-28T05:43:22;8.73;;;6.40;;
30850;SDS011;17567;48.382;9.102;2023-02-28T05:48:23;7.97;;;4.80;;
30850;SDS011;17567;48.382;9.102;2023-02-28T05:53:25;13.53;;;6.43;;
30850;SDS011;17567;48.382;9.102;2023-02-28T05:58:26;12.10;;;7.70;;
30850;SDS011;17567;48.382;9.102;2023-02-28T06:03:30;10.77;;;7.33;;
30850;SDS011;17567;48.382;9.102;2023-02-28T06:08:31;13.00;;;7.73;;
30850;SDS011;17567;48.382;9.102;2023-02-28T06:13:31;9.87;;;6.73;;
30850;SDS011;17567;48.382;9.102;2023-02-28T06:18:32;10.37;;;7.60;;
30850;SDS011;17567;48.382;9.102;2023-02-28T06:23:32;8.43;;;6.17;;
30850;SDS011;17567;48.382;9.102;2023-02-28T06:28:33;9.10;;;6.17;;
30850;SDS011;17567;48.382;9.102;2023-02-28T06:33:34;13.00;;;7.53;;
30850;SDS011;17567;48.382;9.102;2023-02-28T06:38:34;13.47;;;9.43;;
30850;SDS011;17567;48.382;9.102;2023-02-28T06:43:37;12.17;;;8.80;;
30850;SDS011;17567;48.382;9.102;2023-02-28T06:48:39;15.77;;;10.53;;
30850;SDS011;17567;48.382;9.102;2023-02-28T06:53:40;15.67;;;8.97;;
30850;SDS011;17567;48.382;9.102;2023-02-28T06:58:42;15.70;;;9.17;;
30850;SDS011;17567;48.382;9.102;2023-02-28T07:03:46;12.47;;;8.47;;
30850;SDS011;17567;48.382;9.102;2023-02-28T07:08:46;11.33;;;8.40;;
30850;SDS011;17567;48.382;9.102;2023-02-28T07:13:47;15.20;;;8.60;;
30850;SDS011;17567;48.382;9.102;2023-02-28T07:18:49;15.47;;;10.00;;
30850;SDS011;17567;48.382;9.102;2023-02-28T07:23:51;13.10;;;8.80;;
30850;SDS011;17567;48.382;9.102;2023-02-28T07:28:52;13.10;;;8.03;;
30850;SDS011;17567;48.382;9.102;2023-02-28T07:33:53;19.13;;;12.03;;
30850;SDS011;17567;48.382;9.102;2023-02-28T07:38:53;20.83;;;10.20;;
30850;SDS011;17567;48.382;9.102;2023-02-28T07:43:54;16.90;;;10.37;;
30850;SDS011;17567;48.382;9.102;2023-02-28T07:48:57;12.73;;;9.13;;
30850;SDS011;17567;48.382;9.102;2023-02-28T07:53:59;10.27;;;8.17;;
30850;SDS011;17567;48.382;9.102;2023-02-28T07:59:00;17.47;;;10.83;;
30850;SDS011;17567;48.382;9.102;2023-02-28T08:04:01;36.63;;;17.57;;
30850;SDS011;17567;48.382;9.102;2023-02-28T08:09:02;16.00;;;10.40;;
30850;SDS011;17567;48.382;9.102;2023-02-28T08:14:02;18.67;;;9.47;;
30850;SDS011;17567;48.382;9.102;2023-02-28T08:19:03;13.13;;;9.30;;
30850;SDS011;17567;48.382;9.102;2023-02-28T08:24:05;11.70;;;8.23;;
30850;SDS011;17567;48.382;9.102;2023-02-28T08:29:06;14.77;;;9.93;;
30850;SDS011;17567;48.382;9.102;2023-02-28T08:34:07;12.83;;;9.47;;
30850;SDS011;17567;48.382;9.102;2023-02-28T08:39:10;21.50;;;11.17;;
30850;SDS011;17567;48.382;9.102;2023-02-28T08:44:11;12.27;;;8.53;;
30850;SDS011;17567;48.382;9.102;2023-02-28T08:49:12;14.50;;;9.53;;
30850;SDS011;17567;48.382;9.102;2023-02-28T08:54:12;13.30;;;8.60;;
30850;SDS011;17567;48.382;9.102;2023-02-28T08:59:16;16.20;;;9.63;;
30850;SDS011;17567;48.382;9.102;2023-02-28T09:04:17;14.57;;;10.20;;
30850;SDS011;17567;48.382;9.102;2023-02-28T09:09:17;11.93;;;9.23;;
30850;SDS011;17567;48.382;9.102;2023-02-28T09:14:18;13.70;;;10.30;;
30850;SDS011;17567;48.382;9.102;2023-02-28T09:19:19;16.80;;;10.90;;
30850;SDS011;17567;48.382;9.102;2023-02-28T09:24:20;15.57;;;9.47;;
30850;SDS011;17567;48.382;9.102;2023-02-28T09:29:21;15.93;;;10.43;;
30850;SDS011;17567;48.382;9.102;2023-02-28T09:34:21;15.17;;;10.07;;
30850;SDS011;17567;48.382;9.102;2023-02-28T09:39:22;16.43;;;10.10;;
30850;SDS011;17567;48.382;9.102;2023-02-28T09:44:38;17.53;;;10.10;;
30850;SDS011;17567;48.382;9.102;2023-02-28T09:49:42;16.47;;;10.43;;
30850;SDS011;17567;48.382;9.102;2023-02-28T09:54:46;15.20;;;10.17;;
30850;SDS011;17567;48.382;9.102;2023-02-28T09:59:59;15.73;;;9.70;;
30850;SDS011;17567;48.382;9.102;2023-02-28T10:05:17;17.00;;;11.57;;
30850;SDS011;17567;48.382;9.102;2023-02-28T10:10:40;14.03;;;9.50;;
30850;SDS011;17567;48.382;9.102;2023-02-28T10:15:45;15.43;;;9.43;;
30850;SDS011;17567;48.382;9.102;2023-02-28T10:20:49;15.87;;;10.63;;
30850;SDS011;17567;48.382;9.102;2023-02-28T10:25:54;13.13;;;9.63;;
30850;SDS011;17567;48.382;9.102;2023-02-28T10:30:59;14.33;;;9.90;;
30850;SDS011;17567;48.382;9.102;2023-02-28T10:36:01;15.83;;;10.13;;
30850;SDS011;17567;48.382;9.102;2023-02-28T10:41:04;14.70;;;9.80;;
30850;SDS011;17567;48.382;9.102;2023-02-28T10:46:12;14.87;;;10.37;;
30850;SDS011;17567;48.382;9.102;2023-02-28T10:51:25;17.70;;;11.23;;
30850;SDS011;17567;48.382;9.102;2023-02-28T10:56:41;15.77;;;11.50;;
30850;SDS011;17567;48.382;9.102;2023-02-28T11:01:45;16.20;;;10.70;;
30850;SDS011;17567;48.382;9.102;2023-02-28T11:07:16;17.73;;;10.47;;
30850;SDS011;17567;48.382;9.102;2023-02-28T11:12:23;16.87;;;10.70;;
30850;SDS011;17567;48.382;9.102;2023-02-28T11:17:29;19.07;;;11.83;;
30850;SDS011;17567;48.382;9.102;2023-02-28T11:22:32;16.40;;;10.60;;
30850;SDS011;17567;48.382;9.102;2023-02-28T11:32:49;20.13;;;10.90;;
30850;SDS011;17567;48.382;9.102;2023-02-28T11:37:50;18.00;;;12.27;;
30850;SDS011;17567;48.382;9.102;2023-02-28T11:43:01;16.20;;;11.83;;
30850;SDS011;17567;48.382;9.102;2023-02-28T12:10:24;33.30;;;17.07;;
30850;SDS011;17567;48.382;9.102;2023-02-28T12:16:45;20.17;;;12.80;;
30850;SDS011;17567;48.382;9.102;2023-02-28T12:27:17;18.93;;;12.57;;
30850;SDS011;17567;48.382;9.102;2023-02-28T12:32:24;16.53;;;11.67;;
30850;SDS011;17567;48.382;9.102;2023-02-28T12:43:00;15.33;;;11.63;;
30850;SDS011;17567;48.382;9.102;2023-02-28T12:48:05;18.27;;;11.73;;
30850;SDS011;17567;48.382;9.102;2023-02-28T13:14:01;19.73;;;12.40;;
30850;SDS011;17567;48.382;9.102;2023-02-28T13:19:08;15.67;;;11.77;;
30850;SDS011;17567;48.382;9.102;2023-02-28T13:24:11;16.57;;;12.43;;
30850;SDS011;17567;48.382;9.102;2023-02-28T13:29:38;19.07;;;13.47;;
30850;SDS011;17567;48.382;9.102;2023-02-28T13:34:47;19.40;;;12.57;;
30850;SDS011;17567;48.382;9.102;2023-02-28T13:50:21;15.47;;;12.33;;
30850;SDS011;17567;48.382;9.102;2023-02-28T14:11:24;17.13;;;12.27;;
30850;SDS011;17567;48.382;9.102;2023-02-28T14:16:37;17.47;;;12.73;;
30850;SDS011;17567;48.382;9.102;2023-02-28T14:21:51;19.30;;;13.43;;
30850;SDS011;17567;48.382;9.102;2023-02-28T14:32:31;19.70;;;12.87;;
30850;SDS011;17567;48.382;9.102;2023-02-28T14:38:01;18.23;;;11.93;;
30850;SDS011;17567;48.382;9.102;2023-02-28T14:43:18;18.00;;;13.27;;
30850;SDS011;17567;48.382;9.102;2023-02-28T14:48:24;19.40;;;12.23;;
30850;SDS011;17567;48.382;9.102;2023-02-28T14:53:30;15.07;;;12.07;;
30850;SDS011;17567;48.382;9.102;2023-02-28T14:58:36;18.47;;;12.93;;
30850;SDS011;17567;48.382;9.102;2023-02-28T15:03:37;16.07;;;11.87;;
30850;SDS011;17567;48.382;9.102;2023-02-28T15:08:39;18.67;;;12.83;;
30850;SDS011;17567;48.382;9.102;2023-02-28T15:13:42;19.13;;;12.77;;
30850;SDS011;17567;48.382;9.102;2023-02-28T15:24:12;17.27;;;12.07;;
30850;SDS011;17567;48.382;9.102;2023-02-28T15:29:24;15.70;;;10.90;;
30850;SDS011;17567;48.382;9.102;2023-02-28T15:34:33;17.07;;;10.97;;
30850;SDS011;17567;48.382;9.102;2023-02-28T15:39:42;14.63;;;11.57;;
30850;SDS011;17567;48.382;9.102;2023-02-28T15:44:44;17.10;;;11.00;;
30850;SDS011;17567;48.382;9.102;2023-02-28T15:54:50;16.87;;;12.73;;
30850;SDS011;17567;48.382;9.102;2023-02-28T15:59:53;15.80;;;11.90;;
30850;SDS011;17567;48.382;9.102;2023-02-28T16:10:25;21.57;;;15.00;;
30850;SDS011;17567;48.382;9.102;2023-02-28T16:15:28;17.27;;;12.57;;
30850;SDS011;17567;48.382;9.102;2023-02-28T16:20:30;19.00;;;13.17;;
30850;SDS011;17567;48.382;9.102;2023-02-28T16:25:35;27.50;;;17.53;;
30850;SDS011;17567;48.382;9.102;2023-02-28T16:30:39;21.23;;;14.73;;
30850;SDS011;17567;48.382;9.102;2023-02-28T16:35:39;16.57;;;12.40;;
30850;SDS011;17567;48.382;9.102;2023-02-28T16:40:40;18.50;;;13.20;;
30850;SDS011;17567;48.382;9.102;2023-02-28T16:45:41;24.70;;;15.10;;
30850;SDS011;17567;48.382;9.102;2023-02-28T16:50:42;29.37;;;18.10;;
30850;SDS011;17567;48.382;9.102;2023-02-28T16:55:46;30.57;;;19.60;;
30850;SDS011;17567;48.382;9.102;2023-02-28T17:00:48;50.67;;;27.50;;
30850;SDS011;17567;48.382;9.102;2023-02-28T17:05:49;50.53;;;26.70;;
30850;SDS011;17567;48.382;9.102;2023-02-28T17:10:49;68.50;;;34.77;;
30850;SDS011;17567;48.382;9.102;2023-02-28T17:15:50;35.80;;;21.20;;
30850;SDS011;17567;48.382;9.102;2023-02-28T17:20:51;44.03;;;22.17;;
30850;SDS011;17567;48.382;9.102;2023-02-28T17:25:51;76.13;;;36.20;;
30850;SDS011;17567;48.382;9.102;2023-02-28T17:30:54;48.43;;;29.30;;
30850;SDS011;17567;48.382;9.102;2023-02-28T17:35:55;55.13;;;36.00;;
30850;SDS011;17567;48.382;9.102;2023-02-28T17:40:56;79.37;;;41.97;;
30850;SDS011;17567;48.382;9.102;2023-02-28T17:45:57;39.17;;;24.47;;
30850;SDS011;17567;48.382;9.102;2023-02-28T17:50:58;57.37;;;31.97;;
30850;SDS011;17567;48.382;9.102;2023-02-28T17:55:58;54.60;;;32.23;;
30850;SDS011;17567;48.382;9.102;2023-02-28T18:00:59;45.47;;;24.87;;
30850;SDS011;17567;48.382;9.102;2023-02-28T18:05:59;46.67;;;25.80;;
30850;SDS011;17567;48.382;9.102;2023-02-28T18:11:01;40.97;;;22.67;;
30850;SDS011;17567;48.382;9.102;2023-02-28T18:16:02;21.37;;;14.40;;
30850;SDS011;17567;48.382;9.102;2023-02-28T18:21:04;46.30;;;23.23;;
30850;SDS011;17567;48.382;9.102;2023-02-28T18:26:07;22.80;;;14.20;;
30850;SDS011;17567;48.382;9.102;2023-02-28T18:31:08;45.87;;;21.03;;
30850;SDS011;17567;48.382;9.102;2023-02-28T18:36:11;46.33;;;22.03;;
30850;SDS011;17567;48.382;9.102;2023-02-28T18:41:11;53.03;;;24.03;;
30850;SDS011;17567;48.382;9.102;2023-02-28T18:46:15;57.70;;;25.77;;
30850;SDS011;17567;48.382;9.102;2023-02-28T18:51:18;30.30;;;19.20;;
30850;SDS011;17567;48.382;9.102;2023-02-28T18:56:22;186.50;;;50.83;;
30850;SDS011;17567;48.382;9.102;2023-02-28T19:01:25;50.37;;;25.50;;
30850;SDS011;17567;48.382;9.102;2023-02-28T19:06:31;37.27;;;23.10;;
30850;SDS011;17567;48.382;9.102;2023-02-28T19:11:33;40.10;;;22.43;;
30850;SDS011;17567;48.382;9.102;2023-02-28T19:16:34;56.47;;;27.63;;
30850;SDS011;17567;48.382;9.102;2023-02-28T19:21:34;58.83;;;30.33;;
30850;SDS011;17567;48.382;9.102;2023-02-28T19:26:35;54.60;;;26.70;;
30850;SDS011;17567;48.382;9.102;2023-02-28T19:31:36;38.50;;;18.63;;
30850;SDS011;17567;48.382;9.102;2023-02-28T19:36:37;36.97;;;22.37;;
30850;SDS011;17567;48.382;9.102;2023-02-28T19:41:37;34.27;;;19.70;;
30850;SDS011;17567;48.382;9.102;2023-02-28T19:46:38;18.73;;;11.37;;
30850;SDS011;17567;48.382;9.102;2023-02-28T19:51:38;19.70;;;11.97;;
30850;SDS011;17567;48.382;9.102;2023-02-28T19:56:40;24.10;;;17.07;;
30850;SDS011;17567;48.382;9.102;2023-02-28T20:01:40;18.10;;;10.83;;
30850;SDS011;17567;48.382;9.102;2023-02-28T20:06:41;19.77;;;12.37;;
30850;SDS011;17567;48.382;9.102;2023-02-28T20:11:42;33.67;;;19.70;;
30850;SDS011;17567;48.382;9.102;2023-02-28T20:16:43;21.00;;;13.33;;
30850;SDS011;17567;48.382;9.102;2023-02-28T20:21:44;19.33;;;12.47;;
30850;SDS011;17567;48.382;9.102;2023-02-28T20:26:45;24.67;;;14.37;;
30850;SDS011;17567;48.382;9.102;2023-02-28T20:31:46;25.63;;;14.33;;
30850;SDS011;17567;48.382;9.102;2023-02-28T20:36:48;19.33;;;13.10;;
30850;SDS011;17567;48.382;9.102;2023-02-28T20:41:48;26.63;;;16.07;;
30850;SDS011;17567;48.382;9.102;2023-02-28T20:46:49;33.30;;;18.10;;
30850;SDS011;17567;48.382;9.102;2023-02-28T20:51:50;33.70;;;17.77;;
30850;SDS011;17567;48.382;9.102;2023-02-28T20:56:50;57.43;;;27.30;;
30850;SDS011;17567;48.382;9.102;2023-02-28T21:01:51;55.60;;;31.83;;
30850;SDS011;17567;48.382;9.102;2023-02-28T21:06:55;32.40;;;19.60;;
30850;SDS011;17567;48.382;9.102;2023-02-28T21:11:55;28.27;;;16.77;;
30850;SDS011;17567;48.382;9.102;2023-02-28T21:16:56;35.27;;;18.30;;
30850;SDS011;17567;48.382;9.102;2023-02-28T21:21:57;31.70;;;16.33;;
30850;SDS011;17567;48.382;9.102;2023-02-28T21:26:57;31.17;;;16.13;;
30850;SDS011;17567;48.382;9.102;2023-02-28T21:32:00;23.33;;;13.97;;
30850;SDS011;17567;48.382;9.102;2023-02-28T21:37:00;23.23;;;14.00;;
30850;SDS011;17567;48.382;9.102;2023-02-28T21:42:01;22.83;;;13.97;;
30850;SDS011;17567;48.382;9.102;2023-02-28T21:47:02;27.47;;;14.23;;
30850;SDS011;17567;48.382;9.102;2023-02-28T21:52:03;22.70;;;13.57;;
30850;SDS011;17567;48.382;9.102;2023-02-28T21:57:04;19.60;;;12.70;;
30850;SDS011;17567;48.382;9.102;2023-02-28T22:02:05;27.70;;;14.60;;
30850;SDS011;17567;48.382;9.102;2023-02-28T22:07:09;28.33;;;15.67;;
30850;SDS011;17567;48.382;9.102;2023-02-28T22:12:10;26.53;;;14.27;;
30850;SDS011;17567;48.382;9.102;2023-02-28T22:17:10;22.27;;;12.13;;
30850;SDS011;17567;48.382;9.102;2023-02-28T22:22:11;20.97;;;11.27;;
30850;SDS011;17567;48.382;9.102;2023-02-28T22:27:11;21.43;;;11.67;;
30850;SDS011;17567;48.382;9.102;2023-02-28T22:32:12;18.83;;;10.63;;
30850;SDS011;17567;48.382;9.102;2023-02-28T22:37:14;24.80;;;13.13;;
30850;SDS011;17567;48.382;9.102;2023-02-28T22:42:14;25.63;;;14.50;;
30850;SDS011;17567;48.382;9.102;2023-02-28T22:47:15;29.90;;;14.73;;
30850;SDS011;17567;48.382;9.102;2023-02-28T22:52:16;28.17;;;14.67;;
30850;SDS011;17567;48.382;9.102;2023-02-28T22:57:16;30.63;;;14.73;;
30850;SDS011;17567;48.382;9.102;2023-02-28T23:02:17;24.10;;;13.80;;
30850;SDS011;17567;48.382;9.102;2023-02-28T23:07:17;18.90;;;11.20;;
30850;SDS011;17567;48.382;9.102;2023-02-28T23:12:18;20.20;;;10.77;;
30850;SDS011;17567;48.382;9.102;2023-02-28T23:17:19;24.70;;;13.07;;
30850;SDS011;17567;48.382;9.102;2023-02-28T23:22:19;23.17;;;12.13;;
30850;SDS011;17567;48.382;9.102;2023-02-28T23:27:20;20.97;;;11.80;;
30850;SDS011;17567;48.382;9.102;2023-02-28T23:32:21;19.90;;;10.83;;
30850;SDS011;17567;48.382;9.102;2023-02-28T23:37:21;25.00;;;12.87;;
30850;SDS011;17567;48.382;9.102;2023-02-28T23:42:22;20.70;;;12.20;;
30850;SDS011;17567;48.382;9.102;2023-02-28T23:47:22;21.67;;;11.77;;
30850;SDS011;17567;48.382;9.102;2023-02-28T23:52:23;22.70;;;11.57;;
30850;SDS011;17567;48.382;9.102;2023-02-28T23:57:24;20.23;;;10.80;;
